Latest Weather Observations for Wangaratta

IDV60801

Issued at 4:02 am EST Tuesday 31 May 2016 (issued every 30 minutes, with the page automatically refreshed every 10 minutes)

About weather observations | Map of weather stations | Latest weather observations for VIC | Other Formats
Station Details ID: 082138 Name: WANGARATTA AERO Lat: -36.42 Lon: 146.31 Height: 152.6 m
Data from the previous 72 hours. | See also: Recent months at Wangaratta
Date/Time
EST
Temp
°C
App
Temp
°C
Dew
Point
Rel
Hum
%
Delta-T
°C
Wind Press
QNH
hPa
Press
MSL
hPa
Rain
since 9 am
mm
Dir
 
Spd
km/h
Gust
km/h
Spd
kts
Gust
kts
31/04:00am 1.2 -1.9 1.1 99 0.0 S 7 13 4 7 1028.5 1028.7 -
31/03:47am 1.3 -1.3 1.2 99 0.0 S 4 7 2 4 1028.4 1028.6 -
31/03:30am 1.5 -1.6 1.4 99 0.0 S 7 9 4 5 1028.4 1028.6 -
31/03:21am 1.4 -1.5 1.3 99 0.0 S 6 7 3 4 1028.5 1028.7 -
31/03:13am 1.5 -0.6 1.4 99 0.0 SSW 2 6 1 3 1028.4 1028.6 -
31/03:00am 1.3 -0.5 1.2 99 0.0 CALM 0 0 0 0 1028.4 1028.6 0.0
31/02:49am 1.4 -0.4 1.3 99 0.0 CALM 0 0 0 0 1028.5 1028.7 -
31/02:47am 1.5 -0.3 1.4 99 0.0 CALM 0 0 0 0 1028.5 1028.7 -
31/02:30am 1.5 -0.3 1.4 99 0.0 CALM 0 0 0 0 1028.5 1028.7 -
31/02:08am 1.3 -0.5 1.2 99 0.0 CALM 0 0 0 0 1028.5 1028.7 -
31/02:00am 1.5 -0.3 1.4 99 0.0 CALM 0 0 0 0 1028.5 1028.7 -
31/01:41am 2.2 0.2 2.1 99 0.0 SW 2 6 1 3 1028.5 1028.7 -
31/01:30am 2.0 0.3 1.9 99 0.0 CALM 0 0 0 0 1028.6 1028.8 -
31/01:20am 2.1 -0.3 2.0 99 0.0 SW 4 6 2 3 1028.6 1028.8 -
31/01:00am 1.8 -1.1 1.7 99 0.0 SW 6 7 3 4 1028.5 1028.7 -
31/12:30am 2.3 0.7 2.2 99 0.0 CALM 0 0 0 0 1028.5 1028.7 -
31/12:20am 2.3 -0.1 2.2 99 0.0 S 4 6 2 3 1028.6 1028.8 -
31/12:05am 2.9 0.2 2.8 99 0.0 SSW 6 7 3 4 1028.6 1028.8 -
31/12:00am 2.9 0.0 2.8 99 0.0 SSW 7 7 4 4 1028.6 1028.8 -
 
Date/Time
EST
Temp
°C
App
Temp
°C
Dew
Point
Rel
Hum
%
Delta-T
°C
Wind Press
QNH
hPa
Press
MSL
hPa
Rain
since 9 am
mm
Dir
 
Spd
km/h
Gust
km/h
Spd
kts
Gust
kts
30/11:30pm 3.0 0.2 2.9 99 0.0 SSW 7 9 4 5 1028.6 1028.8 -
30/11:02pm 3.1 0.3 3.0 99 0.0 S 7 9 4 5 1028.6 1028.8 -
30/11:00pm 3.2 0.4 3.1 99 0.0 S 7 9 4 5 1028.5 1028.7 -
30/10:43pm 2.3 -0.7 2.2 99 0.0 SW 7 7 4 4 1028.6 1028.8 -
30/10:34pm 2.7 0.0 2.4 98 0.1 SW 6 7 3 4 1028.6 1028.8 -
30/10:30pm 2.5 -0.3 2.2 98 0.1 WSW 6 7 3 4 1028.6 1028.8 -
30/10:21pm 2.7 -0.2 2.4 98 0.1 WSW 7 9 4 5 1028.7 1028.9 -
30/10:00pm 2.9 1.3 2.6 98 0.1 CALM 0 0 0 0 1028.5 1028.7 -
30/09:30pm 3.2 1.7 2.9 98 0.1 CALM 0 0 0 0 1028.5 1028.7 -
30/09:00pm 3.9 2.5 3.5 97 0.2 CALM 0 0 0 0 1028.3 1028.5 -
30/08:30pm 3.9 2.5 3.3 96 0.2 CALM 0 0 0 0 1028.0 1028.2 -
30/08:00pm 4.5 3.1 3.8 95 0.3 CALM 0 0 0 0 1027.7 1027.8 -
30/07:41pm 5.0 3.7 4.3 95 0.3 CALM 0 0 0 0 1027.5 1027.6 -
30/07:30pm 5.2 3.9 4.3 94 0.4 CALM 0 0 0 0 1027.4 1027.5 -
30/07:11pm 5.4 4.1 4.2 92 0.5 CALM 0 0 0 0 1027.3 1027.4 -
30/07:00pm 5.9 4.7 4.7 92 0.5 CALM 0 0 0 0 1027.2 1027.3 -
30/06:30pm 6.7 5.5 4.5 86 1.0 CALM 0 0 0 0 1026.9 1027.0 -
30/06:00pm 8.1 6.9 4.7 79 1.5 CALM 0 0 0 0 1026.7 1026.8 0.0
30/05:30pm 9.7 8.6 5.1 73 2.1 CALM 0 0 0 0 1026.5 1026.6 0.0
30/05:28pm 9.6 8.5 5.2 74 2.0 CALM 0 0 0 0 1026.5 1026.6 0.0
30/05:27pm 9.5 8.4 5.3 75 1.9 CALM 0 0 0 0 1026.5 1026.6 0.0
30/05:00pm 11.3 10.5 6.4 72 2.3 CALM 0 2 0 1 1026.2 1026.3 0.0
30/04:59pm 11.4 10.4 5.7 68 2.7 CALM 0 2 0 1 1026.2 1026.3 0.0
30/04:48pm 12.4 11.1 3.9 56 3.9 CALM 0 0 0 0 1026.2 1026.3 0.0
30/04:30pm 12.6 11.3 4.3 57 3.8 CALM 0 4 0 2 1026.0 1026.1 0.0
30/04:25pm 13.4 12.3 5.1 57 3.9 CALM 0 0 0 0 1026.0 1026.1 0.0
30/04:00pm 12.2 10.9 3.9 57 3.7 CALM 0 0 0 0 1025.9 1026.0 0.0
30/03:52pm 12.2 10.9 3.9 57 3.8 CALM 0 0 0 0 1025.8 1025.9 0.0
30/03:31pm 12.9 11.7 4.6 57 3.8 CALM 0 0 0 0 1025.8 1025.9 0.0
30/03:30pm 12.9 11.7 4.6 57 3.8 CALM 0 0 0 0 1025.8 1025.9 0.0
30/03:00pm 12.5 10.0 4.5 58 3.7 SSW 7 13 4 7 1025.8 1025.9 0.0
30/02:30pm 12.9 11.2 4.1 55 4.0 SSE 2 7 1 4 1025.7 1025.8 0.0
30/02:00pm 12.3 10.5 3.3 54 4.0 SSW 2 7 1 4 1025.7 1025.8 0.0
30/01:30pm 12.4 10.5 2.8 52 4.2 SSW 2 9 1 5 1025.9 1026.0 0.0
30/01:00pm 11.6 9.0 3.4 57 3.6 SW 6 9 3 5 1026.0 1026.1 0.0
30/12:30pm 12.1 10.6 5.0 62 3.3 NE 2 6 1 3 1026.3 1026.4 0.0
30/12:00pm 10.9 9.1 5.4 69 2.5 NNE 4 9 2 5 1026.7 1026.8 0.0
30/11:30am 9.8 7.5 5.6 75 1.9 E 7 13 4 7 1027.1 1027.2 0.0
30/11:00am 9.5 8.2 5.9 78 1.7 SE 2 7 1 4 1027.4 1027.5 0.0
30/10:30am 7.8 6.2 4.7 81 1.4 SSE 2 7 1 4 1027.5 1027.6 0.0
30/10:00am 6.8 5.5 4.3 84 1.1 CALM 0 0 0 0 1027.7 1027.8 0.0
30/09:30am 6.2 3.8 4.2 87 0.9 SE 6 9 3 5 1027.6 1027.7 0.0
30/09:00am 5.3 2.8 3.6 89 0.7 SE 6 9 3 5 1027.4 1027.5 0.0
30/08:30am 4.3 2.6 3.9 97 0.2 SSW 2 7 1 4 1027.0 1027.1 0.0
30/08:00am 2.8 1.2 2.4 97 0.2 CALM 0 0 0 0 1026.8 1026.9 0.0
30/07:30am 2.7 0.7 2.3 97 0.2 S 2 6 1 3 1026.4 1026.5 0.0
30/07:00am 2.7 -0.3 2.3 97 0.2 SSW 7 9 4 5 1026.1 1026.2 0.0
30/06:30am 3.4 0.5 2.8 96 0.2 SSW 7 9 4 5 1025.8 1025.9 0.0
30/06:00am 3.9 1.3 3.3 96 0.2 S 6 7 3 4 1025.4 1025.5 0.0
30/05:30am 3.9 1.4 3.5 97 0.2 S 6 6 3 3 1025.0 1025.2 0.0
30/05:00am 4.0 1.3 3.7 98 0.1 SSW 7 9 4 5 1024.9 1025.1 0.0
30/04:30am 3.8 1.3 3.7 99 0.0 SSW 6 7 3 4 1024.7 1024.9 0.0
30/04:00am 3.8 1.3 3.7 99 0.0 SW 6 7 3 4 1024.5 1024.7 0.0
30/03:30am 3.5 0.9 3.4 99 0.0 SSW 6 7 3 4 1024.3 1024.5 0.0
30/03:00am 3.7 1.2 3.6 99 0.0 S 6 9 3 5 1024.3 1024.5 0.0
30/02:30am 3.5 2.1 3.4 99 0.0 CALM 0 0 0 0 1024.2 1024.4 0.0
30/02:00am 3.2 1.7 3.1 99 0.0 CALM 0 0 0 0 1024.3 1024.5 0.0
30/01:30am 2.5 0.9 2.4 99 0.0 CALM 0 0 0 0 1024.2 1024.4 0.0
30/01:26am 2.3 0.7 2.2 99 0.0 CALM 0 0 0 0 1024.1 1024.3 0.0
30/01:00am 2.5 -0.2 2.4 99 0.0 SSE 6 7 3 4 1023.9 1024.1 0.0
30/12:32am 2.6 -0.2 2.3 98 0.1 S 6 6 3 3 1023.9 1024.1 0.0
30/12:30am 2.6 -0.2 2.3 98 0.1 S 6 7 3 4 1023.9 1024.1 0.0
30/12:00am 2.3 -0.5 1.9 97 0.2 WSW 6 7 3 4 1023.8 1024.0 0.0
 
Date/Time
EST
Temp
°C
App
Temp
°C
Dew
Point
Rel
Hum
%
Delta-T
°C
Wind Press
QNH
hPa
Press
MSL
hPa
Rain
since 9 am
mm
Dir
 
Spd
km/h
Gust
km/h
Spd
kts
Gust
kts
29/11:30pm 2.7 -0.6 2.3 97 0.2 SW 9 9 5 5 1023.5 1023.7 0.0
29/11:00pm 3.2 0.9 2.6 96 0.2 SSE 4 7 2 4 1023.3 1023.5 0.0
29/10:30pm 3.5 1.2 2.9 96 0.2 ESE 4 6 2 3 1023.1 1023.3 0.0
29/10:00pm 3.1 -0.2 2.2 94 0.4 ESE 9 11 5 6 1023.0 1023.2 0.0
29/09:30pm 3.5 0.5 2.3 92 0.5 E 7 11 4 6 1022.9 1023.1 0.0
29/09:00pm 4.4 2.7 2.1 85 0.9 CALM 0 0 0 0 1022.6 1022.8 0.0
29/08:30pm 6.4 3.8 3.0 79 1.4 WNW 6 11 3 6 1022.5 1022.7 0.0
29/08:00pm 7.3 3.9 3.9 79 1.5 W 11 13 6 7 1022.3 1022.5 0.0
29/07:30pm 7.8 5.2 4.2 78 1.6 NW 7 9 4 5 1021.8 1021.9 0.0
29/07:00pm 7.4 4.8 4.4 81 1.3 NW 7 7 4 4 1021.5 1021.6 0.0
29/06:30pm 7.6 5.0 4.2 79 1.5 NW 7 9 4 5 1021.2 1021.3 0.0
29/06:00pm 8.3 5.3 4.3 76 1.8 NW 9 11 5 6 1020.9 1021.0 0.0
29/05:30pm 8.9 6.4 4.5 74 2.0 NW 7 9 4 5 1020.6 1020.7 0.0
29/05:00pm 9.6 6.7 4.6 71 2.2 WNW 9 11 5 6 1020.4 1020.5 0.0
29/04:30pm 12.1 9.0 5.5 64 3.1 W 11 17 6 9 1020.1 1020.2 0.0
29/04:00pm 12.6 9.0 5.1 60 3.5 W 13 17 7 9 1020.0 1020.1 0.0
29/03:30pm 12.0 8.2 5.6 65 3.0 WSW 15 20 8 11 1020.0 1020.1 0.0
29/03:00pm 12.8 9.3 5.5 61 3.4 WSW 13 17 7 9 1019.9 1020.0 0.0
29/02:30pm 12.7 8.7 4.9 59 3.6 W 15 19 8 10 1019.6 1019.7 0.0
29/02:00pm 12.7 8.4 5.1 60 3.5 W 17 22 9 12 1019.6 1019.7 0.0
29/01:30pm 12.4 8.2 5.8 64 3.1 WSW 17 22 9 12 1019.7 1019.8 0.0
29/01:00pm 12.2 8.2 4.7 60 3.4 WSW 15 22 8 12 1019.9 1020.0 0.0
29/12:30pm 12.2 8.3 5.4 63 3.2 WSW 15 22 8 12 1020.0 1020.1 0.0
29/12:00pm 12.1 8.0 4.6 60 3.4 SW 15 20 8 11 1020.1 1020.2 0.0
29/11:30am 11.7 7.5 5.6 66 2.9 WSW 17 22 9 12 1020.2 1020.3 0.0
29/11:00am 11.1 9.7 5.6 69 2.6 WNW 2 7 1 4 1020.4 1020.5 0.0
29/10:30am 10.3 8.9 5.3 71 2.3 NNW 2 9 1 5 1020.5 1020.6 0.0
29/10:00am 8.9 7.8 5.3 78 1.6 CALM 0 0 0 0 1020.2 1020.3 0.0
29/09:30am 7.4 5.8 4.7 83 1.2 NE 2 7 1 4 1020.0 1020.1 0.0
29/09:00am 6.5 4.6 4.7 88 0.8 ENE 4 9 2 5 1019.8 1019.9 0.0
29/08:30am 4.7 2.6 4.0 95 0.3 ENE 4 7 2 4 1019.5 1019.6 0.0
29/08:00am 3.2 0.9 2.9 98 0.1 E 4 7 2 4 1019.2 1019.3 0.0
29/07:30am 2.8 0.1 2.5 98 0.1 E 6 7 3 4 1018.7 1018.8 0.0
29/07:00am 2.9 -0.4 2.5 97 0.2 ESE 9 11 5 6 1018.5 1018.6 0.0
29/06:30am 2.8 -0.6 2.1 95 0.3 E 9 13 5 7 1018.3 1018.5 0.0
29/06:00am 3.1 0.1 1.8 91 0.5 WNW 7 9 4 5 1017.8 1018.0 0.0
29/05:30am 5.5 2.9 4.0 90 0.6 S 7 9 4 5 1017.8 1018.0 0.0
29/05:00am 6.5 3.1 4.2 85 1.0 SW 11 13 6 7 1017.5 1017.7 0.0
29/04:30am 6.9 2.4 4.2 83 1.2 SW 17 22 9 12 1017.3 1017.5 0.0
29/04:00am 7.3 2.8 4.4 82 1.3 SW 17 19 9 10 1017.2 1017.4 0.0
29/03:30am 7.7 3.6 4.5 80 1.4 SW 15 20 8 11 1017.1 1017.3 0.0
29/03:00am 8.1 3.7 4.7 79 1.5 WSW 17 20 9 11 1016.9 1017.1 0.0
29/02:30am 8.5 3.7 4.9 78 1.6 SW 19 24 10 13 1016.9 1017.1 0.0
29/02:00am 7.4 4.9 4.5 82 1.3 W 7 11 4 6 1016.7 1016.9 0.0
29/01:30am 8.6 5.2 5.7 82 1.3 W 13 15 7 8 1016.4 1016.5 0.0
29/01:00am 9.0 5.2 5.9 81 1.4 WSW 15 19 8 10 1016.3 1016.4 0.0
29/12:30am 9.4 6.5 6.3 81 1.4 W 11 15 6 8 1016.3 1016.4 0.0
29/12:00am 9.3 5.9 6.0 80 1.5 WSW 13 19 7 10 1016.1 1016.2 0.0
 
Date/Time
EST
Temp
°C
App
Temp
°C
Dew
Point
Rel
Hum
%
Delta-T
°C
Wind Press
QNH
hPa
Press
MSL
hPa
Rain
since 9 am
mm
Dir
 
Spd
km/h
Gust
km/h
Spd
kts
Gust
kts
28/11:30pm 9.5 5.3 5.9 78 1.7 SW 17 24 9 13 1016.0 1016.1 0.0
28/11:00pm 9.2 5.0 5.8 79 1.6 WSW 17 22 9 12 1016.0 1016.1 0.0
28/10:30pm 9.3 4.7 5.5 77 1.7 SW 19 24 10 13 1015.8 1015.9 0.0
28/10:00pm 8.5 4.6 5.3 80 1.4 SSW 15 19 8 10 1015.5 1015.6 0.0
28/09:30pm 8.6 5.4 5.0 78 1.6 SSW 11 17 6 9 1015.4 1015.5 0.0
28/09:00pm 8.1 4.4 4.7 79 1.5 WSW 13 17 7 9 1015.2 1015.3 0.0
28/08:30pm 8.5 5.3 4.9 78 1.6 SW 11 15 6 8 1015.1 1015.2 0.0
28/08:00pm 8.4 4.8 4.8 78 1.6 SW 13 17 7 9 1014.9 1015.0 0.0
28/07:30pm 9.3 5.0 5.1 75 1.9 SW 17 22 9 12 1014.4 1014.5 0.0
28/07:00pm 9.5 6.0 5.3 75 1.9 SW 13 19 7 10 1014.0 1014.1 0.0
28/06:30pm 10.0 5.6 5.0 71 2.3 SW 17 22 9 12 1013.5 1013.6 0.0
28/06:00pm 10.3 6.0 5.1 70 2.4 SW 17 20 9 11 1013.0 1013.1 0.0
28/05:30pm 11.2 6.8 4.7 64 3.0 SW 17 20 9 11 1012.4 1012.5 0.0
28/05:00pm 11.6 6.6 4.8 63 3.1 SW 20 28 11 15 1011.8 1011.9 0.0
28/04:30pm 12.4 7.5 4.9 60 3.5 SW 20 26 11 14 1011.2 1011.4 0.0
28/04:00pm 13.0 7.3 4.9 58 3.8 SW 24 32 13 17 1010.8 1010.9 0.0
28/03:30pm 13.3 7.7 5.5 59 3.7 SW 24 32 13 17 1010.3 1010.4 0.0
28/03:00pm 13.6 7.1 4.5 54 4.2 SW 28 39 15 21 1009.7 1009.8 0.0
28/02:30pm 13.5 8.2 5.2 57 3.9 SW 22 28 12 15 1009.5 1009.6 0.0
28/02:00pm 13.2 6.6 4.1 54 4.2 SW 28 35 15 19 1009.3 1009.4 0.0
28/01:30pm 13.4 7.0 5.1 57 3.9 SW 28 35 15 19 1009.2 1009.3 0.0
28/01:00pm 13.5 8.2 6.6 63 3.3 WSW 24 32 13 17 1009.2 1009.3 0.0
28/12:30pm 13.4 9.6 5.8 60 3.6 WSW 15 24 8 13 1008.9 1009.0 0.0
28/12:00pm 12.7 11.0 6.1 64 3.2 W 4 7 2 4 1009.2 1009.3 0.0
28/11:30am 11.4 9.2 5.3 66 2.8 SW 6 9 3 5 1009.3 1009.4 0.0
28/11:00am 10.4 8.0 5.2 70 2.4 SW 7 11 4 6 1009.6 1009.7 0.0
28/10:30am 9.5 7.1 5.1 74 2.0 SSE 7 9 4 5 1009.7 1009.8 0.0
28/10:00am 8.8 6.4 5.4 79 1.5 S 7 11 4 6 1009.7 1009.8 0.0
28/09:30am 8.7 6.2 4.9 77 1.7 SSW 7 11 4 6 1009.4 1009.5 0.0
28/09:00am 8.1 6.2 4.9 80 1.4 S 4 9 2 5 1009.2 1009.3 0.0
28/08:30am 7.4 6.3 5.2 86 1.0 CALM 0 0 0 0 1008.9 1009.0 0.0
28/08:00am 6.8 5.7 5.3 90 0.7 CALM 0 0 0 0 1008.7 1008.8 0.0
28/07:30am 7.0 5.9 5.2 88 0.8 CALM 0 0 0 0 1008.3 1008.4 0.0
28/07:00am 7.2 4.9 5.7 90 0.7 SSW 7 7 4 4 1008.1 1008.2 0.0
28/06:30am 7.0 6.0 5.6 91 0.6 CALM 0 0 0 0 1007.6 1007.7 0.0
28/06:00am 6.8 4.5 5.6 92 0.5 WSW 7 7 4 4 1007.3 1007.4 0.0
28/05:30am 6.7 4.5 5.2 90 0.7 NW 6 7 3 4 1007.2 1007.3 0.0
28/05:00am 7.1 4.7 5.3 88 0.8 S 7 9 4 5 1007.2 1007.3 0.0
28/04:30am 7.0 5.2 5.2 88 0.8 SSE 4 7 2 4 1006.9 1007.0 0.0

Other Formats:

Comma delimited format used in spreadsheet applications
http://www.bom.gov.au/fwo/IDV60801/IDV60801.94889.axf

JavaScript Object Notation format (JSON) in row-major order
http://www.bom.gov.au/fwo/IDV60801/IDV60801.94889.json